createdAt,value
2023-04-19T00:02:11.874Z,7.00
2023-04-19T00:04:38.652Z,6.30
2023-04-19T00:07:05.321Z,7.40
2023-04-19T00:09:32.047Z,6.50
2023-04-19T00:11:58.643Z,7.63
2023-04-19T00:14:25.680Z,6.90
2023-04-19T00:16:52.381Z,6.55
2023-04-19T00:19:18.998Z,6.25
2023-04-19T00:21:45.652Z,5.95
2023-04-19T00:24:12.308Z,5.97
2023-04-19T00:26:38.974Z,6.78
2023-04-19T00:29:05.629Z,6.93
2023-04-19T00:31:32.300Z,5.82
2023-04-19T00:33:58.932Z,5.88
2023-04-19T00:36:26.749Z,5.88
2023-04-19T00:38:53.384Z,5.25
2023-04-19T00:41:19.991Z,6.93
2023-04-19T00:43:46.702Z,6.28
2023-04-19T00:46:15.163Z,5.53
2023-04-19T00:48:41.931Z,5.88
2023-04-19T00:51:10.537Z,6.00
2023-04-19T00:53:38.405Z,6.20
2023-04-19T00:56:05.962Z,5.97
2023-04-19T00:58:32.920Z,6.47
2023-04-19T01:01:00.474Z,5.45
2023-04-19T01:03:29.749Z,6.22
2023-04-19T01:05:57.382Z,6.65
2023-04-19T01:08:24.290Z,7.50
2023-04-19T01:10:50.970Z,8.48
2023-04-19T01:13:17.563Z,7.85
2023-04-19T01:15:44.302Z,9.10
2023-04-19T01:18:11.445Z,7.95
2023-04-19T01:20:38.097Z,7.60
2023-04-19T01:23:04.851Z,8.05
2023-04-19T01:25:31.648Z,6.53
2023-04-19T01:27:58.332Z,7.53
2023-04-19T01:30:24.985Z,7.15
2023-04-19T01:32:51.793Z,6.90
2023-04-19T01:35:19.007Z,7.65
2023-04-19T01:37:45.684Z,7.75
2023-04-19T01:40:12.886Z,6.82
2023-04-19T01:42:39.502Z,7.35
2023-04-19T01:45:06.654Z,5.85
2023-04-19T01:47:33.315Z,6.82
2023-04-19T01:49:59.970Z,7.07
2023-04-19T01:52:26.690Z,6.75
2023-04-19T01:54:53.271Z,7.05
2023-04-19T01:57:19.976Z,7.38
2023-04-19T01:59:46.668Z,7.18
2023-04-19T02:02:13.430Z,7.57
2023-04-19T02:04:40.140Z,7.15
2023-04-19T02:07:06.868Z,7.25
2023-04-19T02:09:37.753Z,6.80
2023-04-19T02:12:05.042Z,6.63
2023-04-19T02:14:32.333Z,7.35
2023-04-19T02:16:58.948Z,6.72
2023-04-19T02:19:25.564Z,8.10
2023-04-19T02:21:53.749Z,8.15
2023-04-19T02:24:20.443Z,7.35
2023-04-19T02:26:47.127Z,7.00
2023-04-19T02:29:14.045Z,7.13
2023-04-19T02:31:40.732Z,6.55
2023-04-19T02:34:07.412Z,8.98
2023-04-19T02:36:34.066Z,12.13
2023-04-19T02:39:00.655Z,8.10
2023-04-19T02:41:27.303Z,7.60
2023-04-19T02:43:53.894Z,6.60
2023-04-19T02:46:20.542Z,7.40
2023-04-19T02:48:47.193Z,8.30
2023-04-19T02:51:17.639Z,8.70
2023-04-19T02:53:44.314Z,7.45
2023-04-19T02:56:10.920Z,8.82
2023-04-19T02:58:37.567Z,8.82
2023-04-19T03:01:04.246Z,8.23
2023-04-19T03:03:31.000Z,8.25
2023-04-19T03:05:58.048Z,7.50
2023-04-19T03:08:24.795Z,7.60
2023-04-19T03:10:51.467Z,7.15
2023-04-19T03:13:18.088Z,7.38
2023-04-19T03:15:44.803Z,8.00
2023-04-19T03:18:11.536Z,7.03
2023-04-19T03:20:38.166Z,7.15
2023-04-19T03:23:04.865Z,7.55
2023-04-19T03:25:32.178Z,6.90
2023-04-19T03:27:58.829Z,6.80
2023-04-19T03:30:25.441Z,5.70
2023-04-19T03:32:52.315Z,6.50
2023-04-19T03:35:19.037Z,6.28
2023-04-19T03:37:45.837Z,6.22
2023-04-19T03:40:12.790Z,5.93
2023-04-19T03:42:39.379Z,6.70
2023-04-19T03:45:06.346Z,6.53
2023-04-19T03:47:33.005Z,7.50
2023-04-19T03:49:59.648Z,7.22
2023-04-19T03:52:26.284Z,6.47
2023-04-19T03:54:52.936Z,7.25
2023-04-19T03:57:19.526Z,6.20
2023-04-19T03:59:46.129Z,6.03
2023-04-19T04:02:12.841Z,5.68
2023-04-19T04:04:39.919Z,6.97
2023-04-19T04:07:06.597Z,5.65
2023-04-19T04:09:33.229Z,5.10
2023-04-19T04:11:59.842Z,5.53
2023-04-19T04:14:26.438Z,5.20
2023-04-19T04:16:53.104Z,5.55
2023-04-19T04:19:21.922Z,5.28
2023-04-19T04:21:49.353Z,5.22
2023-04-19T04:24:17.992Z,4.82
2023-04-19T04:26:44.697Z,5.28
2023-04-19T04:29:11.330Z,4.75
2023-04-19T04:31:38.012Z,5.47
2023-04-19T04:34:04.615Z,5.85
2023-04-19T04:36:31.245Z,5.97
2023-04-19T04:38:58.826Z,5.63
2023-04-19T04:41:25.496Z,4.18
2023-04-19T04:44:08.322Z,4.72
2023-04-19T04:46:37.807Z,5.22
2023-04-19T04:49:04.523Z,5.72
2023-04-19T04:51:31.870Z,5.43
2023-04-19T04:53:58.711Z,6.03
2023-04-19T04:56:27.108Z,5.60
2023-04-19T04:58:53.935Z,5.47
2023-04-19T05:01:21.636Z,5.60
2023-04-19T05:03:48.326Z,5.18
2023-04-19T05:06:15.019Z,4.90
2023-04-19T05:08:41.797Z,6.80
2023-04-19T05:11:09.020Z,6.57
2023-04-19T05:13:35.803Z,7.13
2023-04-19T05:16:02.641Z,8.18
2023-04-19T05:18:29.276Z,8.35
2023-04-19T05:20:57.371Z,7.43
2023-04-19T05:23:23.970Z,7.45
2023-04-19T05:25:50.573Z,8.82
2023-04-19T05:28:17.179Z,6.85
2023-04-19T05:30:43.960Z,6.75
2023-04-19T05:33:10.681Z,6.10
2023-04-19T05:35:37.339Z,6.38
2023-04-19T05:38:04.006Z,7.05
2023-04-19T05:40:30.696Z,6.60
2023-04-19T05:42:57.298Z,6.97
2023-04-19T05:45:24.486Z,5.75
2023-04-19T05:47:51.096Z,5.50
2023-04-19T05:50:20.561Z,4.72
2023-04-19T05:52:47.415Z,5.65
2023-04-19T05:55:14.176Z,4.53
2023-04-19T05:57:40.914Z,4.85
2023-04-19T06:00:09.710Z,4.55
2023-04-19T06:02:37.070Z,5.38
2023-04-19T06:05:09.971Z,4.70
2023-04-19T06:07:40.719Z,5.18
2023-04-19T06:10:14.261Z,5.60
2023-04-19T06:12:40.862Z,5.85
2023-04-19T06:15:07.935Z,5.63
2023-04-19T06:17:34.592Z,6.00
2023-04-19T06:20:01.220Z,6.35
2023-04-19T06:22:27.941Z,8.38
2023-04-19T06:24:54.540Z,9.13
2023-04-19T06:27:21.199Z,9.73
2023-04-19T06:29:49.818Z,10.48
2023-04-19T06:32:17.727Z,11.52
2023-04-19T06:34:44.378Z,12.50
2023-04-19T06:37:10.964Z,13.90
2023-04-19T06:39:37.610Z,14.52
2023-04-19T06:42:04.281Z,15.38
2023-04-19T06:44:31.175Z,15.73
2023-04-19T06:46:57.799Z,17.05
2023-04-19T06:49:24.496Z,18.17
2023-04-19T06:51:51.230Z,17.65
2023-04-19T06:54:18.095Z,18.95
2023-04-19T06:56:47.034Z,21.33
2023-04-19T06:59:15.039Z,18.48
2023-04-19T07:01:41.846Z,20.80
2023-04-19T07:04:08.726Z,18.08
2023-04-19T07:06:36.306Z,20.83
2023-04-19T07:09:04.187Z,12.43
2023-04-19T07:11:31.199Z,10.25
2023-04-19T07:13:58.632Z,7.40
2023-04-19T07:16:25.510Z,6.97
2023-04-19T07:18:52.522Z,6.10
2023-04-19T07:21:19.232Z,5.38
2023-04-19T07:23:45.961Z,4.53
2023-04-19T07:26:12.646Z,5.45
2023-04-19T07:28:40.094Z,6.03
2023-04-19T07:31:06.868Z,5.68
2023-04-19T07:33:33.596Z,6.47
2023-04-19T07:36:00.287Z,7.13
2023-04-19T07:38:26.925Z,11.43
2023-04-19T07:40:53.560Z,9.93
2023-04-19T07:43:20.232Z,10.98
2023-04-19T07:45:46.834Z,11.68
2023-04-19T07:48:14.746Z,11.82
2023-04-19T07:50:41.362Z,12.63
2023-04-19T07:53:08.015Z,11.18
2023-04-19T07:55:34.670Z,11.73
2023-04-19T07:58:02.269Z,12.43
2023-04-19T08:00:30.027Z,13.82
2023-04-19T08:02:59.933Z,11.00
2023-04-19T08:05:27.551Z,11.77
2023-04-19T08:07:54.384Z,10.25
2023-04-19T08:10:22.434Z,10.52
2023-04-19T08:13:04.511Z,13.40
2023-04-19T08:18:05.624Z,16.02
2023-04-19T08:20:33.133Z,15.38
2023-04-19T08:23:07.296Z,14.50
2023-04-19T08:25:41.502Z,13.65
2023-04-19T08:28:08.365Z,13.10
2023-04-19T08:30:35.117Z,14.68
2023-04-19T08:33:01.893Z,15.63
2023-04-19T08:35:28.695Z,15.00
2023-04-19T08:37:55.414Z,16.35
2023-04-19T08:40:22.243Z,18.27
2023-04-19T08:42:48.976Z,17.90
2023-04-19T08:45:27.775Z,20.38
2023-04-19T08:48:01.815Z,19.33
2023-04-19T08:53:12.160Z,17.33
2023-04-19T08:56:06.946Z,18.77
2023-04-19T09:01:06.675Z,14.82
2023-04-19T09:03:38.549Z,19.35
2023-04-19T09:06:14.596Z,18.75
2023-04-19T09:08:41.951Z,20.00
2023-04-19T09:11:09.141Z,18.50
2023-04-19T09:13:38.427Z,19.10
2023-04-19T09:16:05.910Z,17.77
2023-04-19T09:18:34.437Z,16.67
2023-04-19T09:21:04.743Z,16.88
2023-04-19T09:23:31.342Z,17.60
2023-04-19T09:28:34.207Z,14.95
2023-04-19T09:31:33.225Z,15.57
2023-04-19T09:34:19.581Z,14.68
2023-04-19T09:36:46.899Z,15.60
2023-04-19T09:39:14.920Z,14.13
2023-04-19T09:41:54.886Z,16.25
2023-04-19T09:44:53.035Z,14.93
2023-04-19T09:47:26.309Z,15.48
2023-04-19T09:50:19.210Z,15.73
2023-04-19T09:52:49.449Z,14.27
2023-04-19T09:55:27.076Z,14.35
2023-04-19T09:57:55.253Z,15.00
2023-04-19T10:00:22.960Z,12.75
2023-04-19T10:02:57.934Z,15.00
2023-04-19T10:05:25.819Z,13.25
2023-04-19T10:07:59.309Z,12.98
2023-04-19T10:10:41.164Z,11.15
2023-04-19T10:13:19.800Z,13.25
2023-04-19T10:15:55.345Z,11.35
2023-04-19T10:18:26.886Z,10.63
2023-04-19T10:21:02.260Z,11.65
2023-04-19T10:23:29.366Z,11.57
2023-04-19T10:25:58.050Z,10.80
2023-04-19T10:28:24.996Z,11.60
2023-04-19T10:30:57.639Z,10.95
2023-04-19T10:33:26.043Z,9.07
2023-04-19T10:35:57.327Z,9.68
2023-04-19T10:38:48.999Z,8.93
2023-04-19T10:41:18.691Z,8.52
2023-04-19T10:43:56.147Z,8.65
2023-04-19T10:46:23.137Z,8.30
2023-04-19T10:48:54.346Z,9.30
2023-04-19T10:51:23.826Z,8.40
2023-04-19T10:53:54.209Z,8.00
2023-04-19T10:56:42.148Z,7.63
2023-04-19T10:59:21.555Z,8.65
2023-04-19T11:01:57.272Z,6.97
2023-04-19T11:04:30.027Z,8.23
2023-04-19T11:07:06.028Z,8.98
2023-04-19T11:09:38.698Z,7.93
2023-04-19T11:12:10.760Z,7.55
2023-04-19T11:14:49.187Z,7.60
2023-04-19T11:17:27.131Z,7.30
2023-04-19T11:19:59.757Z,8.88
2023-04-19T11:22:37.418Z,8.25
2023-04-19T11:25:18.199Z,8.52
2023-04-19T11:27:50.901Z,9.77
2023-04-19T11:30:21.540Z,8.48
2023-04-19T11:32:50.907Z,8.05
2023-04-19T11:35:22.538Z,9.05
2023-04-19T11:37:49.714Z,8.63
2023-04-19T11:40:18.005Z,9.13
2023-04-19T11:42:45.222Z,9.77
2023-04-19T11:45:25.923Z,8.32
2023-04-19T11:47:55.855Z,10.05
2023-04-19T11:50:34.379Z,8.25
2023-04-19T11:53:12.473Z,7.95
2023-04-19T11:55:39.294Z,6.80
2023-04-19T11:58:11.622Z,8.07
2023-04-19T12:00:38.372Z,10.07
2023-04-19T12:03:05.294Z,9.82
2023-04-19T12:05:32.622Z,8.38
2023-04-19T12:08:03.759Z,8.30
2023-04-19T12:10:31.903Z,8.52
2023-04-19T12:12:59.061Z,9.30
2023-04-19T12:15:44.469Z,8.00
2023-04-19T12:18:11.345Z,7.30
2023-04-19T12:20:43.581Z,8.57
2023-04-19T12:23:13.917Z,5.97
2023-04-19T12:25:41.444Z,4.75
2023-04-19T12:28:08.227Z,4.50
2023-04-19T12:30:38.555Z,3.75
2023-04-19T12:33:06.964Z,3.67
2023-04-19T12:35:34.889Z,4.80
2023-04-19T12:38:02.792Z,4.78
2023-04-19T12:40:30.726Z,4.60
2023-04-19T12:42:57.463Z,4.47
2023-04-19T12:45:24.150Z,4.70
2023-04-19T12:47:51.170Z,4.20
2023-04-19T12:50:17.839Z,4.55
2023-04-19T12:52:46.168Z,4.20
2023-04-19T12:55:13.053Z,3.72
2023-04-19T12:57:39.734Z,4.10
2023-04-19T13:00:07.474Z,5.85
2023-04-19T13:02:35.014Z,6.75
2023-04-19T13:05:02.273Z,4.47
2023-04-19T13:07:29.217Z,4.45
2023-04-19T13:09:56.797Z,4.85
2023-04-19T13:12:24.259Z,4.18
2023-04-19T13:14:52.547Z,3.97
2023-04-19T13:17:20.390Z,4.40
2023-04-19T13:19:47.593Z,4.35
2023-04-19T13:22:14.877Z,4.22
2023-04-19T13:24:41.571Z,4.35
2023-04-19T13:27:09.233Z,3.78
2023-04-19T13:29:36.468Z,3.65
2023-04-19T13:32:07.290Z,4.18
2023-04-19T13:34:34.210Z,4.72
2023-04-19T13:37:01.061Z,3.67
2023-04-19T13:39:27.651Z,3.80
2023-04-19T13:41:54.274Z,3.42
2023-04-19T13:44:20.924Z,3.30
2023-04-19T13:46:47.683Z,3.53
2023-04-19T13:49:14.355Z,5.63
2023-04-19T13:51:49.634Z,4.28
2023-04-19T13:54:21.284Z,4.80
2023-04-19T13:56:50.476Z,5.40
2023-04-19T13:59:18.148Z,8.75
2023-04-19T14:01:44.743Z,6.90
2023-04-19T14:04:11.584Z,7.90
2023-04-19T14:06:38.348Z,5.95
2023-04-19T14:09:04.975Z,5.80
2023-04-19T14:11:31.661Z,5.47
2023-04-19T14:13:58.326Z,5.85
2023-04-19T14:16:25.552Z,3.17
2023-04-19T14:18:52.653Z,3.63
2023-04-19T14:21:19.509Z,3.03
2023-04-19T14:23:46.137Z,3.10
2023-04-19T14:26:13.082Z,3.45
2023-04-19T14:28:39.672Z,2.60
2023-04-19T14:31:06.416Z,2.80
2023-04-19T14:33:33.288Z,2.90
2023-04-19T14:36:00.047Z,2.85
2023-04-19T14:38:26.702Z,3.00
2023-04-19T14:40:53.340Z,2.65
2023-04-19T14:43:20.015Z,3.42
2023-04-19T14:45:49.880Z,3.55
2023-04-19T14:48:16.648Z,3.50
2023-04-19T14:50:43.364Z,2.38
2023-04-19T14:53:10.009Z,3.65
2023-04-19T14:55:39.780Z,7.00
2023-04-19T14:58:06.586Z,5.80
2023-04-19T15:00:33.817Z,5.18
2023-04-19T15:03:01.509Z,4.60
2023-04-19T15:05:28.648Z,3.95
2023-04-19T15:07:55.624Z,3.42
2023-04-19T15:10:22.293Z,2.83
2023-04-19T15:12:48.929Z,2.88
2023-04-19T15:15:15.763Z,2.78
2023-04-19T15:17:43.082Z,2.63
2023-04-19T15:20:10.100Z,3.55
2023-04-19T15:22:36.702Z,3.75
2023-04-19T15:25:03.829Z,3.17
2023-04-19T15:27:31.343Z,2.90
2023-04-19T15:29:58.006Z,2.30
2023-04-19T15:32:24.754Z,3.08
2023-04-19T15:34:51.583Z,3.15
2023-04-19T15:37:18.185Z,2.30
2023-04-19T15:39:44.908Z,2.67
2023-04-19T15:42:11.631Z,2.30
2023-04-19T15:44:38.271Z,3.45
2023-04-19T15:47:05.118Z,2.75
2023-04-19T15:49:31.787Z,2.40
2023-04-19T15:51:58.432Z,2.47
2023-04-19T15:54:25.122Z,2.70
2023-04-19T15:56:51.763Z,2.75
2023-04-19T15:59:18.552Z,3.05
2023-04-19T16:01:45.404Z,4.93
2023-04-19T16:04:12.247Z,4.30
2023-04-19T16:06:39.088Z,4.53
2023-04-19T16:09:06.631Z,3.85
2023-04-19T16:11:33.314Z,3.42
2023-04-19T16:13:59.956Z,4.18
2023-04-19T16:16:28.223Z,4.00
2023-04-19T16:18:54.854Z,4.82
2023-04-19T16:21:21.573Z,5.30
2023-04-19T16:23:48.164Z,4.68
2023-04-19T16:26:14.814Z,3.85
2023-04-19T16:28:41.870Z,4.43
2023-04-19T16:31:08.552Z,4.28
2023-04-19T16:33:35.177Z,4.05
2023-04-19T16:36:01.800Z,4.25
2023-04-19T16:38:28.525Z,4.38
2023-04-19T16:40:55.869Z,4.18
2023-04-19T16:43:22.570Z,4.07
2023-04-19T16:45:49.269Z,3.38
2023-04-19T16:48:16.186Z,3.78
2023-04-19T16:50:42.802Z,3.35
2023-04-19T16:53:09.483Z,3.53
2023-04-19T16:55:36.917Z,3.90
2023-04-19T16:58:03.613Z,3.60
2023-04-19T17:00:30.339Z,3.45
2023-04-19T17:02:57.116Z,3.47
2023-04-19T17:05:23.959Z,3.55
2023-04-19T17:07:51.808Z,3.80
2023-04-19T17:10:18.457Z,3.53
2023-04-19T17:12:45.162Z,3.30
2023-04-19T17:15:11.887Z,3.42
2023-04-19T17:17:38.533Z,3.50
2023-04-19T17:20:06.246Z,2.97
2023-04-19T17:22:33.067Z,2.90
2023-04-19T17:25:00.487Z,3.20
2023-04-19T17:27:27.203Z,3.47
2023-04-19T17:29:53.820Z,3.00
2023-04-19T17:32:20.541Z,3.10
2023-04-19T17:34:47.296Z,3.15
2023-04-19T17:37:13.901Z,3.75
2023-04-19T17:39:40.619Z,3.28
2023-04-19T17:42:07.210Z,3.42
2023-04-19T17:44:33.852Z,4.18
2023-04-19T17:47:00.544Z,3.30
2023-04-19T17:49:27.310Z,3.15
2023-04-19T17:51:56.069Z,3.10
2023-04-19T17:54:22.814Z,3.30
2023-04-19T17:56:49.444Z,3.10
2023-04-19T17:59:16.188Z,2.67
2023-04-19T18:01:43.082Z,3.03
2023-04-19T18:04:11.708Z,2.58
2023-04-19T18:06:38.547Z,3.28
2023-04-19T18:09:05.334Z,2.65
2023-04-19T18:11:31.987Z,3.10
2023-04-19T18:13:58.601Z,2.13
2023-04-19T18:16:25.220Z,2.20
2023-04-19T18:18:51.911Z,1.95
2023-04-19T18:21:18.606Z,2.13
2023-04-19T18:23:45.351Z,2.28
2023-04-19T18:26:11.951Z,1.92
2023-04-19T18:28:39.435Z,1.83
2023-04-19T18:31:07.536Z,2.00
2023-04-19T18:33:34.362Z,1.70
2023-04-19T18:36:01.029Z,1.77
2023-04-19T18:38:27.687Z,1.48
2023-04-19T18:40:54.364Z,1.80
2023-04-19T18:43:21.226Z,1.70
2023-04-19T18:45:57.138Z,3.30
2023-04-19T18:48:29.097Z,2.83
2023-04-19T18:50:57.187Z,3.47
2023-04-19T18:53:26.924Z,5.00
2023-04-19T18:55:57.722Z,3.92
2023-04-19T18:58:26.276Z,4.00
2023-04-19T19:00:53.072Z,3.53
2023-04-19T19:03:49.824Z,2.80
2023-04-19T19:06:08.523Z,2.67
2023-04-19T19:08:35.409Z,2.75
2023-04-19T19:13:31.850Z,3.78
2023-04-19T19:15:58.638Z,3.90
2023-04-19T19:18:27.674Z,4.57
2023-04-19T19:21:01.146Z,3.88
2023-04-19T19:23:35.773Z,2.70
2023-04-19T19:26:04.484Z,3.65
2023-04-19T19:28:31.115Z,6.32
2023-04-19T19:30:57.879Z,4.78
2023-04-19T19:33:24.948Z,3.53
2023-04-19T19:35:51.557Z,2.78
2023-04-19T19:38:18.161Z,3.33
2023-04-19T19:43:14.271Z,2.85
2023-04-19T19:45:41.659Z,2.28
2023-04-19T19:48:08.574Z,2.03
2023-04-19T19:53:05.109Z,2.78
2023-04-19T19:55:31.744Z,2.45
2023-04-19T20:02:58.781Z,1.83
2023-04-19T20:05:26.622Z,1.63
2023-04-19T20:08:07.534Z,1.50
2023-04-19T20:10:34.981Z,2.88
2023-04-19T20:13:01.724Z,3.28
2023-04-19T20:15:29.952Z,2.60
2023-04-19T20:17:56.615Z,2.50
2023-04-19T20:20:23.569Z,3.22
2023-04-19T20:22:50.444Z,3.30
2023-04-19T20:25:17.132Z,2.92
2023-04-19T20:27:43.708Z,2.20
2023-04-19T20:30:10.769Z,3.00
2023-04-19T20:32:37.420Z,3.28
2023-04-19T20:35:09.828Z,3.65
2023-04-19T20:37:45.149Z,2.90
2023-04-19T20:40:14.482Z,2.95
2023-04-19T20:42:41.418Z,3.38
2023-04-19T20:45:12.854Z,3.28
2023-04-19T20:47:39.678Z,3.30
2023-04-19T20:50:07.882Z,3.38
2023-04-19T20:52:35.207Z,4.13
2023-04-19T20:55:02.036Z,3.55
2023-04-19T20:57:28.666Z,3.67
2023-04-19T20:59:55.372Z,3.55
2023-04-19T21:02:22.155Z,3.38
2023-04-19T21:04:48.889Z,3.40
2023-04-19T21:07:15.604Z,3.75
2023-04-19T21:09:42.303Z,3.25
2023-04-19T21:12:08.981Z,3.20
2023-04-19T21:14:35.690Z,4.03
2023-04-19T21:17:03.577Z,4.30
2023-04-19T21:19:30.552Z,4.32
2023-04-19T21:21:58.297Z,4.30
2023-04-19T21:24:24.867Z,4.43
2023-04-19T21:26:51.497Z,4.22
2023-04-19T21:29:18.240Z,4.38
2023-04-19T21:31:45.157Z,4.85
2023-04-19T21:34:11.881Z,4.43
2023-04-19T21:36:38.641Z,4.20
2023-04-19T21:39:05.385Z,4.55
2023-04-19T21:41:32.058Z,5.03
2023-04-19T21:43:58.658Z,4.70
2023-04-19T21:46:25.527Z,4.93
2023-04-19T21:48:54.259Z,5.22
2023-04-19T21:51:22.271Z,4.68
2023-04-19T21:53:48.875Z,4.55
2023-04-19T21:56:15.494Z,4.20
2023-04-19T21:58:42.101Z,4.53
2023-04-19T22:01:10.086Z,4.68
2023-04-19T22:03:37.649Z,4.65
2023-04-19T22:06:04.795Z,4.90
2023-04-19T22:08:32.936Z,4.60
2023-04-19T22:11:00.435Z,5.75
2023-04-19T22:13:28.428Z,5.13
2023-04-19T22:15:57.185Z,4.88
2023-04-19T22:18:24.203Z,4.53
2023-04-19T22:20:52.195Z,4.72
2023-04-19T22:23:19.120Z,4.55
2023-04-19T22:25:46.011Z,4.63
2023-04-19T22:28:12.812Z,4.72
2023-04-19T22:30:39.557Z,5.65
2023-04-19T22:33:06.214Z,5.22
2023-04-19T22:35:32.872Z,5.05
2023-04-19T22:37:59.501Z,5.38
2023-04-19T22:40:26.217Z,5.40
2023-04-19T22:42:52.840Z,5.65
2023-04-19T22:45:19.453Z,5.68
2023-04-19T22:47:46.136Z,5.70
2023-04-19T22:50:12.935Z,6.35
2023-04-19T22:52:40.961Z,5.53
2023-04-19T22:55:07.856Z,6.10
2023-04-19T22:57:34.493Z,7.68
2023-04-19T23:00:01.166Z,6.20
2023-04-19T23:02:27.962Z,6.75
2023-04-19T23:04:54.733Z,6.57
2023-04-19T23:07:22.058Z,6.38
2023-04-19T23:09:49.791Z,6.60
2023-04-19T23:12:17.456Z,6.65
2023-04-19T23:14:44.203Z,6.28
2023-04-19T23:17:10.819Z,6.00
2023-04-19T23:19:38.859Z,6.22
2023-04-19T23:22:05.738Z,5.90
2023-04-19T23:24:32.483Z,6.38
2023-04-19T23:26:59.099Z,6.60
2023-04-19T23:29:25.740Z,6.47
2023-04-19T23:31:52.640Z,5.85
2023-04-19T23:34:19.511Z,6.57
2023-04-19T23:36:46.151Z,7.47
2023-04-19T23:39:12.872Z,7.05
2023-04-19T23:41:39.475Z,6.40
2023-04-19T23:44:06.292Z,6.60
2023-04-19T23:46:33.067Z,7.03
2023-04-19T23:48:59.753Z,6.68
2023-04-19T23:51:26.396Z,6.65
2023-04-19T23:53:53.005Z,5.97
2023-04-19T23:56:19.590Z,7.47
2023-04-19T23:58:46.307Z,6.65
